createdAt,value
2017-10-16T00:02:09.483Z,54.43
2017-10-16T00:04:47.291Z,54.60
2017-10-16T00:07:21.893Z,54.71
2017-10-16T00:09:57.211Z,54.94
2017-10-16T00:12:31.832Z,54.84
2017-10-16T00:15:07.029Z,54.76
2017-10-16T00:17:41.597Z,54.94
2017-10-16T00:20:17.587Z,55.25
2017-10-16T00:22:54.951Z,55.42
2017-10-16T00:25:30.045Z,55.45
2017-10-16T00:28:04.570Z,55.69
2017-10-16T00:30:39.765Z,55.62
2017-10-16T00:33:14.481Z,55.83
2017-10-16T00:35:49.329Z,55.94
2017-10-16T00:38:23.953Z,55.95
2017-10-16T00:40:59.385Z,55.85
2017-10-16T00:43:34.707Z,55.99
2017-10-16T00:46:09.309Z,55.99
2017-10-16T00:48:44.618Z,56.04
2017-10-16T00:51:22.678Z,56.07
2017-10-16T00:53:57.503Z,55.80
2017-10-16T00:56:32.479Z,55.73
2017-10-16T00:59:07.433Z,55.57
2017-10-16T01:01:42.293Z,55.62
2017-10-16T01:04:19.442Z,55.58
2017-10-16T01:06:56.584Z,55.62
2017-10-16T01:09:31.407Z,55.69
2017-10-16T01:12:06.863Z,55.70
2017-10-16T01:14:42.089Z,55.82
2017-10-16T01:17:16.707Z,55.93
2017-10-16T01:19:52.044Z,56.08
2017-10-16T01:22:27.518Z,56.03
2017-10-16T01:25:02.361Z,56.09
2017-10-16T01:27:42.853Z,56.47
2017-10-16T01:30:19.562Z,56.46
2017-10-16T01:32:56.260Z,56.55
2017-10-16T01:35:31.751Z,56.62
2017-10-16T01:38:09.126Z,56.65
2017-10-16T01:40:43.984Z,56.81
2017-10-16T01:43:19.850Z,57.13
2017-10-16T01:45:54.349Z,57.23
2017-10-16T01:48:31.526Z,57.02
2017-10-16T01:51:07.013Z,57.01
2017-10-16T01:53:41.815Z,57.02
2017-10-16T01:56:16.538Z,57.28
2017-10-16T01:58:51.092Z,57.24
2017-10-16T02:01:31.930Z,57.19
2017-10-16T02:04:07.063Z,57.26
2017-10-16T02:06:42.463Z,57.20
2017-10-16T02:09:17.017Z,57.35
2017-10-16T02:11:52.438Z,57.11
2017-10-16T02:14:27.313Z,56.99
2017-10-16T02:17:01.793Z,57.24
2017-10-16T02:19:36.473Z,57.31
2017-10-16T02:22:11.177Z,57.13
2017-10-16T02:24:45.898Z,56.84
2017-10-16T02:27:23.427Z,56.89
2017-10-16T02:29:57.947Z,56.82
2017-10-16T02:32:32.746Z,57.00
2017-10-16T02:35:07.410Z,57.08
2017-10-16T02:37:42.066Z,57.40
2017-10-16T02:40:21.061Z,57.48
2017-10-16T02:42:55.615Z,57.60
2017-10-16T02:45:31.315Z,57.65
2017-10-16T02:48:08.175Z,57.53
2017-10-16T02:50:42.705Z,57.24
2017-10-16T02:53:20.301Z,56.93
2017-10-16T02:55:55.559Z,56.74
2017-10-16T02:58:30.280Z,56.62
2017-10-16T03:01:05.308Z,56.14
2017-10-16T03:03:39.876Z,55.93
2017-10-16T03:06:14.364Z,55.76
2017-10-16T03:08:48.884Z,55.81
2017-10-16T03:11:23.793Z,55.69
2017-10-16T03:14:00.229Z,55.46
2017-10-16T03:16:39.312Z,55.45
2017-10-16T03:19:14.137Z,55.41
2017-10-16T03:21:55.303Z,55.36
2017-10-16T03:24:30.196Z,55.42
2017-10-16T03:27:07.410Z,55.59
2017-10-16T03:29:42.276Z,55.82
2017-10-16T03:32:18.961Z,56.13
2017-10-16T03:34:53.456Z,56.14
2017-10-16T03:37:29.506Z,56.02
2017-10-16T03:40:04.536Z,56.11
2017-10-16T03:42:41.145Z,56.11
2017-10-16T03:45:16.440Z,56.04
2017-10-16T03:47:51.505Z,55.83
2017-10-16T03:50:26.946Z,55.76
2017-10-16T03:52:55.030Z,55.66
2017-10-16T03:55:35.583Z,55.73
2017-10-16T03:58:21.260Z,55.77
2017-10-16T04:00:56.704Z,55.59
2017-10-16T04:03:23.568Z,55.41
2017-10-16T04:05:58.744Z,54.98
2017-10-16T04:08:38.057Z,54.63
2017-10-16T04:11:19.713Z,54.54
2017-10-16T04:14:00.077Z,54.62
2017-10-16T04:16:34.851Z,54.65
2017-10-16T04:19:11.275Z,54.74
2017-10-16T04:21:46.098Z,55.06
2017-10-16T04:24:22.272Z,54.92
2017-10-16T04:27:01.693Z,54.84
2017-10-16T04:29:36.346Z,54.74
2017-10-16T04:32:11.962Z,54.64
2017-10-16T04:34:47.634Z,54.63
2017-10-16T04:37:22.196Z,54.48
2017-10-16T04:39:56.835Z,54.41
2017-10-16T04:42:32.231Z,54.25
2017-10-16T04:45:07.001Z,54.28
2017-10-16T04:47:42.406Z,54.20
2017-10-16T04:50:09.954Z,53.85
2017-10-16T04:52:44.700Z,53.80
2017-10-16T04:55:20.939Z,53.83
2017-10-16T04:57:55.989Z,53.96
2017-10-16T05:00:32.964Z,54.08
2017-10-16T05:03:08.414Z,53.71
2017-10-16T05:05:43.633Z,53.46
2017-10-16T05:08:18.098Z,53.02
2017-10-16T05:10:52.858Z,52.60
2017-10-16T05:13:27.758Z,52.45
2017-10-16T05:16:03.931Z,52.32
2017-10-16T05:18:45.363Z,51.99
2017-10-16T05:21:21.056Z,52.14
2017-10-16T05:23:57.304Z,52.30
2017-10-16T05:26:32.796Z,52.65
2017-10-16T05:29:08.449Z,52.54
2017-10-16T05:31:46.797Z,52.68
2017-10-16T05:34:22.239Z,52.88
2017-10-16T05:37:01.093Z,52.87
2017-10-16T05:39:36.588Z,52.85
2017-10-16T05:42:11.277Z,52.80
2017-10-16T05:44:46.631Z,52.79
2017-10-16T05:47:23.272Z,52.99
2017-10-16T05:49:58.031Z,53.01
2017-10-16T05:52:33.016Z,52.82
2017-10-16T05:55:08.001Z,52.83
2017-10-16T05:57:46.060Z,52.82
2017-10-16T06:00:20.640Z,52.31
2017-10-16T06:03:07.861Z,51.43
2017-10-16T06:05:43.304Z,51.48
2017-10-16T06:08:18.900Z,51.14
2017-10-16T06:10:54.065Z,51.17
2017-10-16T06:13:28.754Z,51.84
2017-10-16T06:16:04.413Z,51.99
2017-10-16T06:18:41.095Z,52.92
2017-10-16T06:21:15.703Z,52.79
2017-10-16T06:23:54.965Z,52.78
2017-10-16T06:26:30.429Z,52.80
2017-10-16T06:29:09.203Z,52.92
2017-10-16T06:31:45.886Z,52.50
2017-10-16T06:34:20.568Z,52.52
2017-10-16T06:36:57.233Z,52.72
2017-10-16T06:39:34.093Z,52.98
2017-10-16T06:42:09.433Z,52.79
2017-10-16T06:44:44.901Z,52.83
2017-10-16T06:47:20.471Z,52.89
2017-10-16T06:49:55.172Z,52.91
2017-10-16T06:52:30.278Z,52.52
2017-10-16T06:55:05.811Z,52.39
2017-10-16T06:57:40.390Z,52.51
2017-10-16T07:00:17.937Z,51.85
2017-10-16T07:02:52.770Z,52.46
2017-10-16T07:05:28.112Z,52.22
2017-10-16T07:08:05.005Z,52.36
2017-10-16T07:10:42.890Z,52.17
2017-10-16T07:13:17.820Z,52.43
2017-10-16T07:15:53.238Z,52.27
2017-10-16T07:18:27.940Z,51.70
2017-10-16T07:21:03.105Z,51.49
2017-10-16T07:23:39.837Z,51.61
2017-10-16T07:26:15.361Z,51.38
2017-10-16T07:28:57.069Z,51.50
2017-10-16T07:31:33.095Z,51.62
2017-10-16T07:34:07.917Z,51.69
2017-10-16T07:36:44.298Z,51.50
2017-10-16T07:39:19.534Z,51.67
2017-10-16T07:41:55.567Z,51.52
2017-10-16T07:44:30.144Z,52.00
2017-10-16T07:47:06.735Z,52.42
2017-10-16T07:49:41.626Z,51.87
2017-10-16T07:52:16.396Z,52.03
2017-10-16T07:54:51.117Z,52.17
2017-10-16T07:57:26.259Z,52.34
2017-10-16T08:00:00.881Z,52.34
2017-10-16T08:02:28.705Z,52.92
2017-10-16T08:05:04.543Z,52.58
2017-10-16T08:07:39.777Z,51.83
2017-10-16T08:10:20.293Z,52.35
2017-10-16T08:13:01.110Z,52.20
2017-10-16T08:15:35.814Z,52.81
2017-10-16T08:18:10.664Z,51.65
2017-10-16T08:20:45.516Z,51.55
2017-10-16T08:23:20.582Z,51.54
2017-10-16T08:25:55.469Z,51.37
2017-10-16T08:28:30.515Z,51.05
2017-10-16T08:31:05.389Z,51.30
2017-10-16T08:33:42.254Z,50.76
2017-10-16T08:36:16.904Z,51.41
2017-10-16T08:38:54.162Z,51.10
2017-10-16T08:41:29.282Z,51.46
2017-10-16T08:44:04.206Z,51.56
2017-10-16T08:46:39.137Z,51.22
2017-10-16T08:49:15.026Z,50.47
2017-10-16T08:51:49.687Z,50.45
2017-10-16T08:54:26.806Z,49.48
2017-10-16T08:57:02.537Z,50.02
2017-10-16T08:59:43.058Z,48.47
2017-10-16T09:02:18.269Z,48.39
2017-10-16T09:04:54.714Z,48.78
2017-10-16T09:07:32.027Z,49.99
2017-10-16T09:10:12.673Z,48.44
2017-10-16T09:12:48.017Z,49.38
2017-10-16T09:15:26.654Z,48.10
2017-10-16T09:18:03.652Z,48.32
2017-10-16T09:20:38.281Z,48.53
2017-10-16T09:23:13.975Z,47.96
2017-10-16T09:25:50.375Z,48.06
2017-10-16T09:28:25.000Z,45.75
2017-10-16T09:31:01.502Z,45.31
2017-10-16T09:33:37.252Z,44.73
2017-10-16T09:36:16.137Z,43.99
2017-10-16T09:38:50.851Z,44.49
2017-10-16T09:41:25.912Z,44.48
2017-10-16T09:44:00.844Z,44.55
2017-10-16T09:46:35.969Z,44.05
2017-10-16T09:49:11.201Z,43.67
2017-10-16T09:51:48.411Z,44.72
2017-10-16T09:54:23.710Z,43.02
2017-10-16T09:57:01.172Z,43.82
2017-10-16T09:59:36.070Z,44.36
2017-10-16T10:02:02.922Z,44.48
2017-10-16T10:04:38.134Z,45.07
2017-10-16T10:07:12.765Z,43.71
2017-10-16T10:09:48.119Z,42.78
2017-10-16T10:12:24.105Z,42.35
2017-10-16T10:14:59.294Z,42.56
2017-10-16T10:17:37.028Z,42.65
2017-10-16T10:20:11.652Z,43.09
2017-10-16T10:22:47.298Z,43.08
2017-10-16T10:25:23.733Z,43.03
2017-10-16T10:27:59.315Z,43.68
2017-10-16T10:30:33.957Z,42.65
2017-10-16T10:33:11.116Z,42.78
2017-10-16T10:35:45.546Z,43.07
2017-10-16T10:38:22.894Z,43.71
2017-10-16T10:40:58.102Z,43.63
2017-10-16T10:43:32.860Z,42.42
2017-10-16T10:46:09.679Z,41.97
2017-10-16T10:48:44.683Z,41.96
2017-10-16T10:51:19.975Z,41.75
2017-10-16T10:53:54.660Z,42.14
2017-10-16T10:56:31.801Z,42.67
2017-10-16T10:59:10.684Z,42.14
2017-10-16T11:01:46.023Z,42.56
2017-10-16T11:04:21.299Z,42.93
2017-10-16T11:06:56.540Z,43.83
2017-10-16T11:09:31.219Z,42.94
2017-10-16T11:12:06.752Z,42.34
2017-10-16T11:14:42.012Z,42.81
2017-10-16T11:17:17.467Z,43.53
2017-10-16T11:19:52.467Z,42.71
2017-10-16T11:22:27.543Z,42.87
2017-10-16T11:25:07.096Z,43.44
2017-10-16T11:27:42.367Z,42.64
2017-10-16T11:30:16.978Z,43.27
2017-10-16T11:32:53.972Z,43.23
2017-10-16T11:35:29.782Z,43.76
2017-10-16T11:38:06.596Z,44.62
2017-10-16T11:40:42.417Z,44.11
2017-10-16T11:43:18.767Z,44.33
2017-10-16T11:45:55.515Z,43.78
2017-10-16T11:48:30.881Z,44.75
2017-10-16T11:51:06.951Z,44.07
2017-10-16T11:53:41.580Z,44.84
2017-10-16T11:56:19.966Z,44.49
2017-10-16T11:59:14.117Z,43.97
2017-10-16T12:01:58.653Z,44.13
2017-10-16T12:04:38.663Z,43.46
2017-10-16T12:07:18.839Z,48.12
2017-10-16T12:09:53.854Z,49.67
2017-10-16T12:12:29.308Z,50.70
2017-10-16T12:15:04.061Z,51.28
2017-10-16T12:17:41.974Z,52.05
2017-10-16T12:20:17.074Z,53.08
2017-10-16T12:22:51.814Z,53.59
2017-10-16T12:25:26.712Z,54.39
2017-10-16T12:28:01.435Z,55.46
2017-10-16T12:30:36.112Z,56.44
2017-10-16T12:33:14.714Z,55.38
2017-10-16T12:35:50.060Z,55.22
2017-10-16T12:38:39.866Z,55.97
2017-10-16T12:41:14.372Z,56.00
2017-10-16T12:43:49.236Z,55.41
2017-10-16T12:46:24.162Z,55.84
2017-10-16T12:48:59.776Z,55.51
2017-10-16T12:51:34.699Z,55.45
2017-10-16T12:54:11.982Z,55.92
2017-10-16T12:56:47.104Z,56.32
2017-10-16T12:59:22.317Z,55.65
2017-10-16T13:01:57.678Z,54.97
2017-10-16T13:04:33.636Z,54.76
2017-10-16T13:07:11.095Z,55.18
2017-10-16T13:09:39.509Z,55.19
2017-10-16T13:12:14.670Z,56.46
2017-10-16T13:14:49.475Z,56.33
2017-10-16T13:17:26.896Z,55.75
2017-10-16T13:20:03.193Z,55.81
2017-10-16T13:22:38.194Z,56.28
2017-10-16T13:25:12.978Z,56.11
2017-10-16T13:27:48.069Z,56.35
2017-10-16T13:30:23.598Z,57.31
2017-10-16T13:32:58.970Z,57.87
2017-10-16T13:35:35.905Z,57.68
2017-10-16T13:38:11.214Z,57.73
2017-10-16T13:40:47.537Z,57.74
2017-10-16T13:43:22.904Z,58.02
2017-10-16T13:45:59.126Z,58.66
2017-10-16T13:48:36.528Z,58.59
2017-10-16T13:51:11.742Z,59.12
2017-10-16T13:53:46.929Z,58.83
2017-10-16T13:56:23.372Z,59.73
2017-10-16T13:58:58.576Z,60.44
2017-10-16T14:01:35.577Z,60.60
2017-10-16T14:04:10.476Z,60.90
2017-10-16T14:06:47.064Z,60.82
2017-10-16T14:09:22.030Z,61.10
2017-10-16T14:11:57.195Z,61.55
2017-10-16T14:14:31.936Z,61.96
2017-10-16T14:17:08.270Z,61.12
2017-10-16T14:19:43.239Z,60.99
2017-10-16T14:22:18.216Z,60.67
2017-10-16T14:24:52.794Z,60.04
2017-10-16T14:27:27.493Z,60.05
2017-10-16T14:30:02.853Z,60.16
2017-10-16T14:32:37.516Z,60.63
2017-10-16T14:35:12.560Z,61.03
2017-10-16T14:37:49.055Z,61.09
2017-10-16T14:40:24.146Z,61.52
2017-10-16T14:43:04.361Z,61.74
2017-10-16T14:45:40.175Z,61.66
2017-10-16T14:48:17.488Z,61.76
2017-10-16T14:50:54.098Z,62.24
2017-10-16T14:53:29.585Z,62.60
2017-10-16T14:55:56.450Z,62.70
2017-10-16T14:58:33.018Z,62.95
2017-10-16T15:01:10.797Z,63.11
2017-10-16T15:03:47.298Z,63.41
2017-10-16T15:06:22.259Z,63.81
2017-10-16T15:08:57.188Z,64.01
2017-10-16T15:11:32.426Z,64.36
2017-10-16T15:14:08.066Z,64.39
2017-10-16T15:16:48.192Z,64.82
2017-10-16T15:19:23.986Z,65.25
2017-10-16T15:21:58.531Z,65.90
2017-10-16T15:24:34.351Z,66.92
2017-10-16T15:27:08.976Z,66.34
2017-10-16T15:29:46.435Z,67.51
2017-10-16T15:32:21.604Z,67.70
2017-10-16T15:35:02.239Z,67.73
2017-10-16T15:37:39.170Z,67.79
2017-10-16T15:40:17.750Z,67.50
2017-10-16T15:42:55.122Z,67.46
2017-10-16T15:45:31.420Z,67.68
2017-10-16T15:48:06.083Z,68.02
2017-10-16T15:50:41.989Z,68.18
2017-10-16T15:53:17.378Z,68.63
2017-10-16T15:55:55.019Z,68.81
2017-10-16T15:58:31.440Z,69.10
2017-10-16T16:01:07.440Z,69.13
2017-10-16T16:06:38.622Z,69.03
2017-10-16T16:09:15.875Z,69.20
2017-10-16T16:11:53.592Z,69.46
2017-10-16T16:14:29.124Z,69.49
2017-10-16T16:17:03.857Z,69.39
2017-10-16T16:19:40.389Z,69.39
2017-10-16T16:22:16.107Z,69.46
2017-10-16T16:24:50.698Z,69.69
2017-10-16T16:27:26.297Z,69.85
2017-10-16T16:30:01.032Z,70.14
2017-10-16T16:32:38.504Z,70.13
2017-10-16T16:35:14.012Z,70.09
2017-10-16T16:37:50.396Z,70.07
2017-10-16T16:40:25.051Z,70.24
2017-10-16T16:43:00.464Z,70.35
2017-10-16T16:45:35.851Z,70.51
2017-10-16T16:48:10.498Z,70.79
2017-10-16T16:50:45.863Z,70.82
2017-10-16T16:53:21.456Z,70.75
2017-10-16T16:55:55.957Z,70.81
2017-10-16T16:58:32.552Z,71.00
2017-10-16T17:01:09.235Z,71.25
2017-10-16T17:03:47.545Z,71.31
2017-10-16T17:06:23.483Z,71.37
2017-10-16T17:09:00.826Z,71.32
2017-10-16T17:11:36.379Z,71.46
2017-10-16T17:14:11.000Z,71.53
2017-10-16T17:16:46.905Z,71.74
2017-10-16T17:19:15.513Z,71.92
2017-10-16T17:21:50.428Z,72.08
2017-10-16T17:24:25.859Z,72.10
2017-10-16T17:27:01.824Z,72.02
2017-10-16T17:29:39.994Z,72.06
2017-10-16T17:32:19.961Z,72.21
2017-10-16T17:34:57.645Z,72.27
2017-10-16T17:37:34.284Z,72.62
2017-10-16T17:40:09.184Z,72.76
2017-10-16T17:42:44.134Z,73.26
2017-10-16T17:45:19.463Z,73.37
2017-10-16T17:47:54.237Z,73.21
2017-10-16T17:50:29.703Z,73.13
2017-10-16T17:53:04.373Z,73.03
2017-10-16T17:55:43.262Z,72.92
2017-10-16T17:58:18.683Z,73.08
2017-10-16T18:00:55.206Z,73.35
2017-10-16T18:03:22.070Z,73.40
2017-10-16T18:05:59.118Z,73.45
2017-10-16T18:08:33.965Z,73.65
2017-10-16T18:11:10.512Z,73.70
2017-10-16T18:13:50.231Z,73.88
2017-10-16T18:16:27.342Z,73.90
2017-10-16T18:19:04.661Z,74.15
2017-10-16T18:21:39.355Z,74.42
2017-10-16T18:24:14.090Z,74.40
2017-10-16T18:26:49.627Z,74.68
2017-10-16T18:29:27.092Z,74.60
2017-10-16T18:32:02.434Z,74.42
2017-10-16T18:34:37.239Z,74.68
2017-10-16T18:37:13.941Z,74.94
2017-10-16T18:39:49.369Z,75.02
2017-10-16T18:42:23.961Z,74.96
2017-10-16T18:44:58.741Z,75.30
2017-10-16T18:47:34.875Z,75.48
2017-10-16T18:50:10.085Z,75.37
2017-10-16T18:52:45.651Z,75.43
2017-10-16T18:55:20.199Z,75.77
2017-10-16T18:57:56.186Z,75.90
2017-10-16T19:00:31.013Z,75.53
2017-10-16T19:03:08.513Z,75.36
2017-10-16T19:05:43.304Z,75.43
2017-10-16T19:08:18.900Z,75.85
2017-10-16T19:10:53.610Z,75.58
2017-10-16T19:13:29.276Z,75.50
2017-10-16T19:16:04.695Z,75.51
2017-10-16T19:18:41.522Z,75.19
2017-10-16T19:21:16.369Z,75.47
2017-10-16T19:23:57.667Z,75.68
2017-10-16T19:26:33.586Z,76.13
2017-10-16T19:29:08.769Z,76.30
2017-10-16T19:31:43.545Z,76.09
2017-10-16T19:34:19.502Z,76.25
2017-10-16T19:36:54.524Z,76.25
2017-10-16T19:39:30.658Z,76.61
2017-10-16T19:42:05.714Z,76.46
2017-10-16T19:44:41.246Z,76.17
2017-10-16T19:47:18.516Z,75.97
2017-10-16T19:49:56.042Z,75.60
2017-10-16T19:52:32.809Z,75.29
2017-10-16T19:57:52.545Z,76.14
2017-10-16T20:00:27.344Z,75.64
2017-10-16T20:02:54.173Z,75.32
2017-10-16T20:05:29.678Z,76.08
2017-10-16T20:08:04.971Z,76.76
2017-10-16T20:10:45.701Z,76.47
2017-10-16T20:13:22.403Z,76.11
2017-10-16T20:15:58.479Z,76.34
2017-10-16T20:18:33.088Z,76.71
2017-10-16T20:21:13.349Z,76.87
2017-10-16T20:23:48.539Z,76.50
2017-10-16T20:26:26.095Z,76.27
2017-10-16T20:29:01.159Z,76.42
2017-10-16T20:31:39.748Z,76.51
2017-10-16T20:34:14.854Z,76.32
2017-10-16T20:36:49.661Z,76.75
2017-10-16T20:39:24.865Z,76.62
2017-10-16T20:42:14.241Z,76.81
2017-10-16T20:44:54.003Z,76.94
2017-10-16T20:47:30.622Z,76.53
2017-10-16T20:50:05.635Z,76.29
2017-10-16T20:52:40.308Z,76.24
2017-10-16T20:55:14.882Z,76.02
2017-10-16T20:57:52.210Z,76.02
2017-10-16T21:00:27.864Z,76.00
2017-10-16T21:03:05.145Z,76.30
2017-10-16T21:05:45.330Z,76.31
2017-10-16T21:08:25.872Z,77.06
2017-10-16T21:11:00.600Z,77.02
2017-10-16T21:13:36.599Z,76.84
2017-10-16T21:16:11.797Z,76.62
2017-10-16T21:18:48.989Z,76.48
2017-10-16T21:21:24.178Z,76.67
2017-10-16T21:24:00.474Z,76.63
2017-10-16T21:26:35.174Z,76.89
2017-10-16T21:29:10.667Z,77.56
2017-10-16T21:31:46.027Z,77.70
2017-10-16T21:34:21.723Z,78.50
2017-10-16T21:36:57.176Z,78.36
2017-10-16T21:39:34.366Z,78.29
2017-10-16T21:42:09.627Z,77.95
2017-10-16T21:44:44.551Z,77.71
2017-10-16T21:47:23.993Z,77.81
2017-10-16T21:49:59.101Z,77.90
2017-10-16T21:52:33.845Z,77.79
2017-10-16T21:55:10.760Z,77.90
2017-10-16T21:57:47.600Z,77.47
2017-10-16T22:00:24.407Z,77.16
2017-10-16T22:05:54.446Z,76.57
2017-10-16T22:08:29.934Z,76.31
2017-10-16T22:11:05.715Z,76.35
2017-10-16T22:13:40.896Z,76.08
2017-10-16T22:16:17.206Z,76.30
2017-10-16T22:18:51.871Z,76.18
2017-10-16T22:21:30.251Z,76.24
2017-10-16T22:24:06.589Z,76.12
2017-10-16T22:26:41.376Z,75.86
2017-10-16T22:29:16.819Z,75.87
2017-10-16T22:31:56.339Z,75.94
2017-10-16T22:34:31.153Z,75.68
2017-10-16T22:39:46.548Z,75.30
2017-10-16T22:42:22.013Z,75.12
2017-10-16T22:44:56.861Z,74.96
2017-10-16T22:47:34.129Z,75.02
2017-10-16T22:50:09.038Z,75.05
2017-10-16T22:52:43.692Z,74.80
2017-10-16T22:55:18.601Z,74.86
2017-10-16T22:57:56.617Z,74.71
2017-10-16T23:00:36.327Z,74.63
2017-10-16T23:03:11.486Z,74.68
2017-10-16T23:05:46.830Z,74.82
2017-10-16T23:08:23.087Z,74.84
2017-10-16T23:10:57.810Z,74.99
2017-10-16T23:13:33.417Z,75.08
2017-10-16T23:16:13.452Z,75.23
2017-10-16T23:18:48.819Z,74.94
2017-10-16T23:21:24.241Z,75.13
2017-10-16T23:23:58.920Z,75.24
2017-10-16T23:26:33.404Z,75.46
2017-10-16T23:29:08.558Z,75.28
2017-10-16T23:31:43.953Z,75.10
2017-10-16T23:34:18.512Z,75.07
2017-10-16T23:36:53.204Z,75.20
2017-10-16T23:39:28.734Z,75.20
2017-10-16T23:42:03.473Z,75.50
2017-10-16T23:44:38.990Z,75.60
2017-10-16T23:47:13.660Z,75.61
2017-10-16T23:49:48.319Z,75.54
2017-10-16T23:52:23.018Z,75.67
2017-10-16T23:54:58.500Z,75.82
2017-10-16T23:57:36.022Z,76.12
